Terminal Aerodrome Forecast
Issued by NWS

Home | Current Version | Previous Version | Text Only | Print | Product List | Glossary On
Versions: 1 2 3 4 5 6 7 8 9 10 11 12 13 14 15 16 17 18 19 20 21 22
000
FTUS41 KLWX 241140
TAFMTN
TAF
KMTN 241140Z 2412/2512 VRB04KT P6SM SCT025 BKN070
     FM241500 09008KT P6SM SCT025 OVC070
     FM242100 10008G16KT P6SM BKN025 OVC050
     FM250000 11008G16KT P6SM BKN015 OVC025
     FM250200 10012G19KT 6SM -RA BKN008 OVC025
     FM250400 10012G19KT 3SM -SHRA OVC008=

USA.gov is the U.S. government's official web portal to all federal, state and local government web resources and services.